createdAt,value
2023-04-04T00:01:52.387Z,4.38
2023-04-04T00:04:55.073Z,5.67
2023-04-04T00:07:59.319Z,3.70
2023-04-04T00:11:02.317Z,4.43
2023-04-04T00:14:06.575Z,6.05
2023-04-04T00:17:09.449Z,4.50
2023-04-04T00:20:12.948Z,5.57
2023-04-04T00:23:17.850Z,5.03
2023-04-04T00:26:21.949Z,6.43
2023-04-04T00:29:24.809Z,4.82
2023-04-04T00:32:27.922Z,3.90
2023-04-04T00:35:30.783Z,5.00
2023-04-04T00:38:35.001Z,4.57
2023-04-04T00:41:37.996Z,5.20
2023-04-04T00:44:41.155Z,6.57
2023-04-04T00:47:44.975Z,4.15
2023-04-04T00:50:48.122Z,5.87
2023-04-04T00:53:53.209Z,4.67
2023-04-04T00:56:56.129Z,4.28
2023-04-04T00:59:59.513Z,4.57
2023-04-04T01:03:02.725Z,4.30
2023-04-04T01:06:05.745Z,5.73
2023-04-04T01:09:10.220Z,4.37
2023-04-04T01:12:13.102Z,4.45
2023-04-04T01:15:16.024Z,3.92
2023-04-04T01:18:22.477Z,4.13
2023-04-04T01:21:26.172Z,3.93
2023-04-04T01:24:34.775Z,5.63
2023-04-04T01:27:39.394Z,4.57
2023-04-04T01:30:43.797Z,5.28
2023-04-04T01:33:55.233Z,4.55
2023-04-04T01:37:04.289Z,4.80
2023-04-04T01:40:13.771Z,4.93
2023-04-04T01:43:18.958Z,5.15
2023-04-04T01:46:22.487Z,4.95
2023-04-04T01:49:25.371Z,5.38
2023-04-04T01:52:28.292Z,4.80
2023-04-04T01:55:30.976Z,4.80
2023-04-04T01:58:35.250Z,5.22
2023-04-04T02:01:38.630Z,4.70
2023-04-04T02:04:41.575Z,4.65
2023-04-04T02:07:48.463Z,4.33
2023-04-04T02:10:51.399Z,4.70
2023-04-04T02:13:55.525Z,4.38
2023-04-04T02:16:58.743Z,5.53
2023-04-04T02:20:01.449Z,5.63
2023-04-04T02:23:04.350Z,4.80
2023-04-04T02:26:07.163Z,4.10
2023-04-04T02:29:11.764Z,7.25
2023-04-04T02:32:14.529Z,4.15
2023-04-04T02:35:17.939Z,4.18
2023-04-04T02:38:20.649Z,6.97
2023-04-04T02:41:23.552Z,7.47
2023-04-04T02:44:27.643Z,5.32
2023-04-04T02:47:30.623Z,4.85
2023-04-04T02:50:33.383Z,5.28
2023-04-04T02:53:36.304Z,4.80
2023-04-04T02:56:39.401Z,4.80
2023-04-04T02:59:43.658Z,5.32
2023-04-04T03:02:47.253Z,4.00
2023-04-04T03:05:51.324Z,3.78
2023-04-04T03:08:54.271Z,6.67
2023-04-04T03:11:57.133Z,4.13
2023-04-04T03:15:01.912Z,5.70
2023-04-04T03:18:05.257Z,4.60
2023-04-04T03:21:08.212Z,5.75
2023-04-04T03:24:10.967Z,5.13
2023-04-04T03:27:13.838Z,8.47
2023-04-04T03:30:18.114Z,4.75
2023-04-04T03:33:21.792Z,4.15
2023-04-04T03:36:24.659Z,5.68
2023-04-04T03:39:29.552Z,5.93
2023-04-04T03:42:34.652Z,5.77
2023-04-04T03:45:39.192Z,4.13
2023-04-04T03:48:42.127Z,5.30
2023-04-04T03:51:44.969Z,5.93
2023-04-04T03:54:47.697Z,5.67
2023-04-04T03:57:50.492Z,4.03
2023-04-04T04:00:54.625Z,4.53
2023-04-04T04:03:57.998Z,5.60
2023-04-04T04:07:02.492Z,5.90
2023-04-04T04:10:06.524Z,6.07
2023-04-04T04:13:09.703Z,5.10
2023-04-04T04:16:13.840Z,5.95
2023-04-04T04:19:17.262Z,5.28
2023-04-04T04:22:19.995Z,5.45
2023-04-04T04:25:22.878Z,5.20
2023-04-04T04:28:33.612Z,4.43
2023-04-04T04:31:38.821Z,4.45
2023-04-04T04:34:41.916Z,5.60
2023-04-04T04:37:44.637Z,8.77
2023-04-04T04:40:47.415Z,6.13
2023-04-04T04:43:50.342Z,4.40
2023-04-04T04:46:54.807Z,4.78
2023-04-04T04:49:57.649Z,7.00
2023-04-04T04:53:00.515Z,6.10
2023-04-04T04:56:03.389Z,5.13
2023-04-04T04:59:07.662Z,5.87
2023-04-04T05:02:11.833Z,3.85
2023-04-04T05:05:14.825Z,6.18
2023-04-04T05:08:17.598Z,5.43
2023-04-04T05:11:21.600Z,6.47
2023-04-04T05:14:24.785Z,4.20
2023-04-04T05:17:28.959Z,5.85
2023-04-04T05:20:32.147Z,6.15
2023-04-04T05:23:34.858Z,4.13
2023-04-04T05:26:38.110Z,6.47
2023-04-04T05:29:40.990Z,5.70
2023-04-04T05:32:47.084Z,4.32
2023-04-04T05:35:50.828Z,6.90
2023-04-04T05:38:54.075Z,7.43
2023-04-04T05:41:56.782Z,5.17
2023-04-04T05:44:59.483Z,6.20
2023-04-04T05:48:03.975Z,7.97
2023-04-04T05:51:06.820Z,6.50
2023-04-04T05:54:09.684Z,8.13
2023-04-04T05:57:12.387Z,9.50
2023-04-04T06:00:16.266Z,5.60
2023-04-04T06:03:21.988Z,6.47
2023-04-04T06:06:25.264Z,8.88
2023-04-04T06:09:28.620Z,8.52
2023-04-04T06:12:31.634Z,7.30
2023-04-04T06:15:34.524Z,7.43
2023-04-04T06:18:38.777Z,5.88
2023-04-04T06:21:41.554Z,7.95
2023-04-04T06:24:44.477Z,7.63
2023-04-04T06:27:47.107Z,12.23
2023-04-04T06:30:50.743Z,8.10
2023-04-04T06:33:54.848Z,6.60
2023-04-04T06:36:57.769Z,6.60
2023-04-04T06:40:00.648Z,7.55
2023-04-04T06:43:03.390Z,7.10
2023-04-04T06:46:06.774Z,8.20
2023-04-04T06:49:11.595Z,8.85
2023-04-04T06:52:14.385Z,6.18
2023-04-04T06:55:17.540Z,7.22
2023-04-04T06:58:20.527Z,8.80
2023-04-04T07:01:23.465Z,5.33
2023-04-04T07:04:27.644Z,5.35
2023-04-04T07:07:30.936Z,5.60
2023-04-04T07:10:33.821Z,6.60
2023-04-04T07:13:36.889Z,5.03
2023-04-04T07:16:39.684Z,6.80
2023-04-04T07:19:43.776Z,6.82
2023-04-04T07:22:46.712Z,4.78
2023-04-04T07:25:49.486Z,6.10
2023-04-04T07:28:52.877Z,6.20
2023-04-04T07:31:56.066Z,4.83
2023-04-04T07:35:00.171Z,5.43
2023-04-04T07:38:03.225Z,3.00
2023-04-04T07:41:06.167Z,4.65
2023-04-04T07:44:09.393Z,3.93
2023-04-04T07:47:12.417Z,3.43
2023-04-04T07:50:17.662Z,3.83
2023-04-04T07:53:20.574Z,3.67
2023-04-04T07:56:23.397Z,2.92
2023-04-04T07:59:26.517Z,3.03
2023-04-04T08:02:29.493Z,4.47
2023-04-04T08:05:35.308Z,3.07
2023-04-04T08:08:38.172Z,5.17
2023-04-04T08:11:41.156Z,4.13
2023-04-04T08:14:43.950Z,3.38
2023-04-04T08:17:46.724Z,5.82
2023-04-04T08:20:51.372Z,5.43
2023-04-04T08:23:54.573Z,5.43
2023-04-04T08:27:05.004Z,4.50
2023-04-04T08:30:09.632Z,3.05
2023-04-04T08:33:12.668Z,3.55
2023-04-04T08:36:17.101Z,4.53
2023-04-04T08:39:19.841Z,4.50
2023-04-04T08:42:23.607Z,2.87
2023-04-04T08:45:29.144Z,3.38
2023-04-04T08:48:33.256Z,4.32
2023-04-04T08:51:40.009Z,2.42
2023-04-04T08:54:44.269Z,3.90
2023-04-04T08:57:47.057Z,5.10
2023-04-04T09:00:49.999Z,3.63
2023-04-04T09:03:53.565Z,3.67
2023-04-04T09:06:59.108Z,4.88
2023-04-04T09:10:03.057Z,3.93
2023-04-04T09:13:15.497Z,4.10
2023-04-04T09:16:19.294Z,7.30
2023-04-04T09:19:23.560Z,3.58
2023-04-04T09:22:29.267Z,9.52
2023-04-04T09:25:32.589Z,5.17
2023-04-04T09:28:37.190Z,8.03
2023-04-04T09:31:40.590Z,4.07
2023-04-04T09:34:44.227Z,4.45
2023-04-04T09:37:48.614Z,3.10
2023-04-04T09:40:52.493Z,3.70
2023-04-04T09:43:56.076Z,4.97
2023-04-04T09:47:07.652Z,3.72
2023-04-04T09:50:17.559Z,2.75
2023-04-04T09:53:21.814Z,3.65
2023-04-04T09:56:24.952Z,4.23
2023-04-04T09:59:27.912Z,3.37
2023-04-04T10:02:32.252Z,3.50
2023-04-04T10:05:35.495Z,3.50
2023-04-04T10:08:43.166Z,3.67
2023-04-04T10:11:46.076Z,4.78
2023-04-04T10:14:49.054Z,3.75
2023-04-04T10:17:57.788Z,2.90
2023-04-04T10:21:14.519Z,6.83
2023-04-04T10:24:20.416Z,3.55
2023-04-04T10:27:23.375Z,3.85
2023-04-04T10:30:27.169Z,4.15
2023-04-04T10:33:38.966Z,4.37
2023-04-04T10:36:50.821Z,2.53
2023-04-04T10:40:01.259Z,4.18
2023-04-04T10:43:06.647Z,3.50
2023-04-04T10:46:15.038Z,4.18
2023-04-04T10:49:18.949Z,2.53
2023-04-04T10:52:23.943Z,4.13
2023-04-04T10:55:32.469Z,3.90
2023-04-04T10:58:41.909Z,3.70
2023-04-04T11:01:49.677Z,3.35
2023-04-04T11:04:52.816Z,2.77
2023-04-04T11:11:21.831Z,3.85
2023-04-04T11:14:30.350Z,3.92
2023-04-04T11:17:43.834Z,2.35
2023-04-04T11:20:49.337Z,4.00
2023-04-04T11:24:16.929Z,4.20
2023-04-04T11:27:22.356Z,2.83
2023-04-04T11:30:26.320Z,3.40
2023-04-04T11:33:32.437Z,4.65
2023-04-04T11:36:53.696Z,2.20
2023-04-04T11:39:59.082Z,3.30
2023-04-04T11:43:10.109Z,2.47
2023-04-04T11:46:20.173Z,5.60
2023-04-04T11:49:27.544Z,2.47
2023-04-04T11:52:35.172Z,2.77
2023-04-04T11:55:42.656Z,3.03
2023-04-04T11:58:56.115Z,4.88
2023-04-04T12:02:05.369Z,3.55
2023-04-04T12:05:11.260Z,2.47
2023-04-04T12:08:16.232Z,1.90
2023-04-04T12:11:21.581Z,3.63
2023-04-04T12:14:27.232Z,2.97
2023-04-04T12:17:30.834Z,2.95
2023-04-04T12:20:33.600Z,3.15
2023-04-04T12:23:36.999Z,3.23
2023-04-04T12:26:41.508Z,3.30
2023-04-04T12:29:47.601Z,2.60
2023-04-04T12:32:51.741Z,3.00
2023-04-04T12:35:56.245Z,4.75
2023-04-04T12:39:01.405Z,3.60
2023-04-04T12:42:05.777Z,1.97
2023-04-04T12:45:14.982Z,1.98
2023-04-04T12:48:18.119Z,3.80
2023-04-04T12:51:21.277Z,2.70
2023-04-04T12:54:28.989Z,2.73
2023-04-04T12:57:31.752Z,4.00
2023-04-04T13:00:36.311Z,2.10
2023-04-04T13:03:40.640Z,2.38
2023-04-04T13:06:47.811Z,2.78
2023-04-04T13:09:55.731Z,3.80
2023-04-04T13:13:00.277Z,2.30
2023-04-04T13:16:06.397Z,2.47
2023-04-04T13:19:09.378Z,1.80
2023-04-04T13:22:12.510Z,2.53
2023-04-04T13:25:15.533Z,4.10
2023-04-04T13:28:19.020Z,3.10
2023-04-04T13:31:23.555Z,2.13
2023-04-04T13:34:27.713Z,2.08
2023-04-04T13:37:30.543Z,2.30
2023-04-04T13:40:33.742Z,2.50
2023-04-04T13:43:38.408Z,2.87
2023-04-04T13:46:45.285Z,2.90
2023-04-04T13:49:48.364Z,3.15
2023-04-04T13:52:52.846Z,1.95
2023-04-04T13:59:01.761Z,2.23
2023-04-04T14:02:06.922Z,2.00
2023-04-04T14:05:10.105Z,2.83
2023-04-04T14:08:15.198Z,2.20
2023-04-04T14:11:19.787Z,3.57
2023-04-04T14:14:22.682Z,4.10
2023-04-04T14:17:27.487Z,3.38
2023-04-04T14:20:30.301Z,4.32
2023-04-04T14:23:33.355Z,1.98
2023-04-04T14:26:37.596Z,2.73
2023-04-04T14:29:40.785Z,2.27
2023-04-04T14:32:46.645Z,2.95
2023-04-04T14:35:50.646Z,4.05
2023-04-04T14:38:53.513Z,1.98
2023-04-04T14:41:56.332Z,3.90
2023-04-04T14:45:02.541Z,3.57
2023-04-04T14:48:07.839Z,3.60
2023-04-04T14:51:10.883Z,2.72
2023-04-04T14:54:13.823Z,3.70
2023-04-04T14:57:17.580Z,2.83
2023-04-04T15:00:23.335Z,3.07
2023-04-04T15:03:27.435Z,2.47
2023-04-04T15:06:36.760Z,16.15
2023-04-04T15:09:39.742Z,9.00
2023-04-04T15:12:42.475Z,7.10
2023-04-04T15:15:47.090Z,3.87
2023-04-04T15:18:51.158Z,4.75
2023-04-04T15:21:57.165Z,3.75
2023-04-04T15:25:02.012Z,3.65
2023-04-04T15:28:05.111Z,2.93
2023-04-04T15:31:08.535Z,2.87
2023-04-04T15:34:12.603Z,2.20
2023-04-04T15:37:16.863Z,2.92
2023-04-04T15:40:21.030Z,2.08
2023-04-04T15:43:24.095Z,3.97
2023-04-04T15:46:28.514Z,4.80
2023-04-04T15:49:33.887Z,3.55
2023-04-04T15:52:36.981Z,3.30
2023-04-04T15:55:43.619Z,3.95
2023-04-04T15:58:47.292Z,3.20
2023-04-04T16:01:52.903Z,4.55
2023-04-04T16:04:57.301Z,3.17
2023-04-04T16:08:00.681Z,5.00
2023-04-04T16:11:03.955Z,6.10
2023-04-04T16:14:09.235Z,2.45
2023-04-04T16:17:12.223Z,3.53
2023-04-04T16:20:17.458Z,5.03
2023-04-04T16:23:20.624Z,4.20
2023-04-04T16:26:24.047Z,4.20
2023-04-04T16:29:30.965Z,5.28
2023-04-04T16:32:34.844Z,6.43
2023-04-04T16:35:39.773Z,3.72
2023-04-04T16:38:42.469Z,4.43
2023-04-04T16:41:45.479Z,5.17
2023-04-04T16:44:48.735Z,4.40
2023-04-04T16:47:51.768Z,3.83
2023-04-04T16:50:57.374Z,3.40
2023-04-04T16:54:00.502Z,4.35
2023-04-04T16:57:03.202Z,3.90
2023-04-04T17:00:09.997Z,3.97
2023-04-04T17:03:13.128Z,3.47
2023-04-04T17:06:17.546Z,4.78
2023-04-04T17:09:20.808Z,4.97
2023-04-04T17:12:24.010Z,2.53
2023-04-04T17:15:28.333Z,3.33
2023-04-04T17:18:31.728Z,4.85
2023-04-04T17:21:36.178Z,4.60
2023-04-04T17:24:38.946Z,4.65
2023-04-04T17:27:41.715Z,4.47
2023-04-04T17:30:44.468Z,4.78
2023-04-04T17:33:47.527Z,4.68
2023-04-04T17:36:54.664Z,4.57
2023-04-04T17:39:58.594Z,4.75
2023-04-04T17:43:04.465Z,3.80
2023-04-04T17:46:07.433Z,4.40
2023-04-04T17:49:10.401Z,5.25
2023-04-04T17:52:19.221Z,4.25
2023-04-04T17:55:23.367Z,3.95
2023-04-04T17:58:26.540Z,4.70
2023-04-04T18:01:29.585Z,5.35
2023-04-04T18:04:32.473Z,5.50
2023-04-04T18:07:36.676Z,3.85
2023-04-04T18:10:43.236Z,4.63
2023-04-04T18:13:46.238Z,3.23
2023-04-04T18:16:49.753Z,5.05
2023-04-04T18:19:54.586Z,6.72
2023-04-04T18:22:58.674Z,5.25
2023-04-04T18:26:02.569Z,6.18
2023-04-04T18:29:06.114Z,6.37
2023-04-04T18:32:09.397Z,4.93
2023-04-04T18:35:14.653Z,6.75
2023-04-04T18:38:19.059Z,6.28
2023-04-04T18:41:21.957Z,6.18
2023-04-04T18:44:25.704Z,7.43
2023-04-04T18:47:28.920Z,8.75
2023-04-04T18:50:32.643Z,8.90
2023-04-04T18:53:37.931Z,10.98
2023-04-04T18:56:41.508Z,11.55
2023-04-04T18:59:44.454Z,10.53
2023-04-04T19:02:48.952Z,11.52
2023-04-04T19:05:53.083Z,10.00
2023-04-04T19:08:59.955Z,10.40
2023-04-04T19:12:03.722Z,11.55
2023-04-04T19:15:07.477Z,10.60
2023-04-04T19:18:10.765Z,10.35
2023-04-04T19:21:13.786Z,11.98
2023-04-04T19:24:22.258Z,12.45
2023-04-04T19:27:24.962Z,13.07
2023-04-04T19:30:49.370Z,11.13
2023-04-04T19:33:55.075Z,9.27
2023-04-04T19:36:58.245Z,10.10
2023-04-04T19:40:02.473Z,10.50
2023-04-04T19:43:05.959Z,8.40
2023-04-04T19:46:11.069Z,8.00
2023-04-04T19:49:14.961Z,6.68
2023-04-04T19:52:23.387Z,7.75
2023-04-04T19:55:40.267Z,7.22
2023-04-04T19:58:44.158Z,6.80
2023-04-04T20:02:00.217Z,6.87
2023-04-04T20:05:37.075Z,8.80
2023-04-04T20:08:44.075Z,7.15
2023-04-04T20:11:50.909Z,8.40
2023-04-04T20:15:00.071Z,7.90
2023-04-04T20:18:03.079Z,8.93
2023-04-04T20:21:11.397Z,11.20
2023-04-04T20:24:17.824Z,9.18
2023-04-04T20:27:27.805Z,7.90
2023-04-04T20:30:34.463Z,7.70
2023-04-04T20:33:38.753Z,8.80
2023-04-04T20:36:43.102Z,8.35
2023-04-04T20:40:00.183Z,9.07
2023-04-04T20:43:08.331Z,10.02
2023-04-04T20:46:13.011Z,9.13
2023-04-04T20:49:21.753Z,7.80
2023-04-04T20:52:26.960Z,7.90
2023-04-04T20:55:45.611Z,7.90
2023-04-04T20:58:49.842Z,9.48
2023-04-04T21:01:52.597Z,9.30
2023-04-04T21:04:55.839Z,9.23
2023-04-04T21:07:59.553Z,8.93
2023-04-04T21:11:02.567Z,8.27
2023-04-04T21:14:07.229Z,8.32
2023-04-04T21:17:09.980Z,8.48
2023-04-04T21:20:16.752Z,9.87
2023-04-04T21:23:31.600Z,11.65
2023-04-04T21:26:36.444Z,9.40
2023-04-04T21:29:45.552Z,9.50
2023-04-04T21:32:48.523Z,12.90
2023-04-04T21:35:54.367Z,11.10
2023-04-04T21:38:59.355Z,10.82
2023-04-04T21:42:06.863Z,10.50
2023-04-04T21:45:12.705Z,11.18
2023-04-04T21:48:15.705Z,10.10
2023-04-04T21:51:18.718Z,11.70
2023-04-04T21:54:22.652Z,11.52
2023-04-04T21:57:25.526Z,10.50
2023-04-04T22:00:29.596Z,10.40
2023-04-04T22:03:32.733Z,9.57
2023-04-04T22:06:36.268Z,11.13
2023-04-04T22:09:43.084Z,10.15
2023-04-04T22:12:47.429Z,8.57
2023-04-04T22:15:52.488Z,9.77
2023-04-04T22:18:56.110Z,11.03
2023-04-04T22:21:58.862Z,8.27
2023-04-04T22:25:05.887Z,8.82
2023-04-04T22:28:09.516Z,8.85
2023-04-04T22:31:13.921Z,9.52
2023-04-04T22:34:16.797Z,9.40
2023-04-04T22:37:21.536Z,8.63
2023-04-04T22:40:24.700Z,8.88
2023-04-04T22:43:28.574Z,8.75
2023-04-04T22:46:32.701Z,8.73
2023-04-04T22:49:38.025Z,9.13
2023-04-04T22:52:43.942Z,8.77
2023-04-04T22:55:46.768Z,8.77
2023-04-04T22:58:50.409Z,8.30
2023-04-04T23:01:54.543Z,7.75
2023-04-04T23:04:58.667Z,8.88
2023-04-04T23:08:04.938Z,9.47
2023-04-04T23:11:08.273Z,8.82
2023-04-04T23:14:15.286Z,10.10
2023-04-04T23:17:19.591Z,6.88
2023-04-04T23:20:25.169Z,7.93
2023-04-04T23:23:27.897Z,8.90
2023-04-04T23:26:31.344Z,6.97
2023-04-04T23:29:34.251Z,8.15
2023-04-04T23:32:38.377Z,7.75
2023-04-04T23:35:41.332Z,10.35
2023-04-04T23:38:44.127Z,8.00
2023-04-04T23:41:47.085Z,8.10
2023-04-04T23:44:49.930Z,7.70
2023-04-04T23:47:54.231Z,8.27
2023-04-04T23:50:57.376Z,7.97
2023-04-04T23:54:00.663Z,9.30
2023-04-04T23:57:03.670Z,11.15
